createdAt,value
2022-12-27T00:01:14.518Z,98083.39
2022-12-27T00:03:42.655Z,98077.90
2022-12-27T00:06:18.408Z,98073.23
2022-12-27T00:08:46.762Z,98074.12
2022-12-27T00:11:16.903Z,98075.01
2022-12-27T00:13:44.825Z,98068.42
2022-12-27T00:16:14.094Z,98071.95
2022-12-27T00:18:42.322Z,98066.27
2022-12-27T00:21:11.918Z,98067.30
2022-12-27T00:23:41.533Z,98067.27
2022-12-27T00:26:14.401Z,98073.00
2022-12-27T00:28:42.690Z,98066.66
2022-12-27T00:31:10.820Z,98056.97
2022-12-27T00:33:39.646Z,98046.26
2022-12-27T00:36:08.479Z,98040.91
2022-12-27T00:38:36.307Z,98042.89
2022-12-27T00:41:04.707Z,98043.33
2022-12-27T00:43:33.108Z,98038.63
2022-12-27T00:46:01.147Z,98035.34
2022-12-27T00:48:29.595Z,98024.39
2022-12-27T00:51:02.764Z,98029.70
2022-12-27T00:53:31.116Z,98034.32
2022-12-27T00:55:59.267Z,98032.30
2022-12-27T00:58:27.519Z,98034.52
2022-12-27T01:00:55.440Z,98028.64
2022-12-27T01:03:23.249Z,98024.70
2022-12-27T01:05:51.065Z,98019.98
2022-12-27T01:08:19.204Z,98019.39
2022-12-27T01:10:49.286Z,98019.76
2022-12-27T01:13:17.042Z,98021.70
2022-12-27T01:15:44.828Z,98027.66
2022-12-27T01:18:12.636Z,98030.75
2022-12-27T01:20:40.635Z,98034.08
2022-12-27T01:23:08.503Z,98029.66
2022-12-27T01:25:36.372Z,98025.73
2022-12-27T01:28:04.285Z,98024.83
2022-12-27T01:30:32.213Z,98012.63
2022-12-27T01:33:00.073Z,98004.55
2022-12-27T01:35:27.912Z,98002.81
2022-12-27T01:37:55.744Z,98004.45
2022-12-27T01:40:25.001Z,98009.17
2022-12-27T01:42:52.778Z,98003.05
2022-12-27T01:45:22.007Z,97993.81
2022-12-27T01:47:55.467Z,97986.42
2022-12-27T01:50:26.760Z,97983.63
2022-12-27T01:52:58.653Z,97984.91
2022-12-27T01:55:30.564Z,97982.89
2022-12-27T01:58:02.055Z,97984.98
2022-12-27T02:00:29.875Z,97982.14
2022-12-27T02:02:59.235Z,97976.35
2022-12-27T02:05:27.397Z,97976.80
2022-12-27T02:08:08.509Z,97976.33
2022-12-27T02:10:36.910Z,97976.77
2022-12-27T02:13:05.921Z,97978.30
2022-12-27T02:15:33.684Z,97978.27
2022-12-27T02:18:01.524Z,97973.22
2022-12-27T02:20:35.405Z,97972.85
2022-12-27T02:23:22.218Z,97974.55
2022-12-27T02:25:52.745Z,97979.94
2022-12-27T02:28:32.804Z,97976.90
2022-12-27T02:31:05.994Z,97972.48
2022-12-27T02:33:37.241Z,97962.69
2022-12-27T02:36:07.861Z,97963.40
2022-12-27T02:38:44.751Z,97961.29
2022-12-27T02:41:31.378Z,97958.77
2022-12-27T02:44:18.157Z,97961.17
2022-12-27T02:47:05.291Z,97965.06
2022-12-27T02:49:53.628Z,97962.64
2022-12-27T02:52:58.377Z,97963.23
2022-12-27T02:55:29.671Z,97962.52
2022-12-27T02:58:06.783Z,97957.08
2022-12-27T03:01:05.181Z,97947.95
2022-12-27T03:03:39.664Z,97949.48
2022-12-27T03:06:39.367Z,97951.95
2022-12-27T03:09:07.271Z,97958.20
2022-12-27T03:11:58.760Z,97961.19
2022-12-27T03:14:54.900Z,97954.38
2022-12-27T03:17:30.752Z,97950.34
2022-12-27T03:20:19.237Z,97946.54
2022-12-27T03:23:06.212Z,97944.91
2022-12-27T03:25:35.047Z,97951.35
2022-12-27T03:28:36.962Z,97947.91
2022-12-27T03:31:26.170Z,97943.92
2022-12-27T03:34:04.517Z,97936.48
2022-12-27T03:37:12.305Z,97941.15
2022-12-27T03:39:44.562Z,97928.98
2022-12-27T03:42:37.100Z,97922.30
2022-12-27T03:45:05.352Z,97906.66
2022-12-27T03:47:55.543Z,97903.86
2022-12-27T03:50:26.471Z,97898.23
2022-12-27T03:53:06.410Z,97889.26
2022-12-27T03:55:34.352Z,97891.11
2022-12-27T03:58:02.509Z,97898.50
2022-12-27T04:00:30.362Z,97902.23
2022-12-27T04:02:58.396Z,97912.44
2022-12-27T04:05:26.465Z,97908.05
2022-12-27T04:08:12.845Z,97905.98
2022-12-27T04:10:59.416Z,97907.44
2022-12-27T04:13:46.051Z,97908.36
2022-12-27T04:16:32.660Z,97908.05
2022-12-27T04:19:18.931Z,97905.00
2022-12-27T04:22:05.281Z,97912.60
2022-12-27T04:24:51.641Z,97911.88
2022-12-27T04:27:38.500Z,97916.48
2022-12-27T04:30:25.337Z,97923.95
2022-12-27T04:33:11.614Z,97923.16
2022-12-27T04:35:39.482Z,97925.88
2022-12-27T04:38:07.348Z,97925.08
2022-12-27T04:40:53.738Z,97923.71
2022-12-27T04:43:40.612Z,97922.54
2022-12-27T04:46:40.104Z,97919.31
2022-12-27T04:49:30.732Z,97921.50
2022-12-27T04:52:34.080Z,97923.66
2022-12-27T04:55:20.336Z,97922.20
2022-12-27T04:57:48.249Z,97926.90
2022-12-27T05:00:35.065Z,97930.79
2022-12-27T05:03:04.993Z,97940.15
2022-12-27T05:05:33.954Z,97945.70
2022-12-27T05:08:21.754Z,97945.66
2022-12-27T05:11:08.396Z,97951.20
2022-12-27T05:13:54.955Z,97955.48
2022-12-27T05:16:23.008Z,97952.70
2022-12-27T05:18:52.665Z,97946.41
2022-12-27T05:21:20.498Z,97946.54
2022-12-27T05:24:06.795Z,97947.37
2022-12-27T05:26:35.425Z,97947.06
2022-12-27T05:29:04.813Z,97945.92
2022-12-27T05:31:34.547Z,97941.56
2022-12-27T05:34:02.469Z,97939.83
2022-12-27T05:36:30.241Z,97942.40
2022-12-27T05:38:58.395Z,97941.58
2022-12-27T05:41:26.898Z,97948.21
2022-12-27T05:43:54.675Z,97948.48
2022-12-27T05:46:22.869Z,97952.14
2022-12-27T05:48:50.738Z,97947.80
2022-12-27T05:51:19.523Z,97945.94
2022-12-27T05:53:48.045Z,97947.16
2022-12-27T05:56:17.425Z,97953.35
2022-12-27T05:58:45.453Z,97952.13
2022-12-27T06:01:15.025Z,97960.56
2022-12-27T06:03:43.339Z,97974.46
2022-12-27T06:06:11.445Z,97976.52
2022-12-27T06:08:39.937Z,97979.06
2022-12-27T06:11:09.326Z,97981.88
2022-12-27T06:13:38.047Z,97991.25
2022-12-27T06:16:07.176Z,97986.23
2022-12-27T06:18:36.157Z,97994.80
2022-12-27T06:21:05.515Z,97998.02
2022-12-27T06:23:34.454Z,97994.66
2022-12-27T06:26:06.570Z,98002.66
2022-12-27T06:28:35.174Z,98007.64
2022-12-27T06:31:03.540Z,98011.98
2022-12-27T06:33:31.907Z,98016.31
2022-12-27T06:36:05.203Z,98017.38
2022-12-27T06:38:33.089Z,98019.11
2022-12-27T06:41:11.530Z,98024.76
2022-12-27T06:43:39.776Z,98032.17
2022-12-27T06:46:15.175Z,98031.83
2022-12-27T06:48:46.691Z,98041.88
2022-12-27T06:51:16.308Z,98050.58
2022-12-27T06:53:47.378Z,98059.61
2022-12-27T06:56:17.561Z,98063.00
2022-12-27T06:58:46.171Z,98058.50
2022-12-27T07:01:15.844Z,98063.89
2022-12-27T07:03:44.991Z,98067.48
2022-12-27T07:06:13.555Z,98075.09
2022-12-27T07:08:42.018Z,98077.63
2022-12-27T07:11:11.536Z,98076.91
2022-12-27T07:13:43.576Z,98073.08
2022-12-27T07:16:12.704Z,98079.33
2022-12-27T07:18:40.746Z,98081.23
2022-12-27T07:21:10.225Z,98081.42
2022-12-27T07:23:38.372Z,98089.23
2022-12-27T07:26:07.649Z,98085.17
2022-12-27T07:28:35.539Z,98083.80
2022-12-27T07:31:10.936Z,98080.30
2022-12-27T07:33:39.342Z,98077.48
2022-12-27T07:36:08.631Z,98069.32
2022-12-27T07:38:36.415Z,98062.20
2022-12-27T07:41:04.611Z,98063.10
2022-12-27T07:43:34.186Z,98059.79
2022-12-27T07:46:05.127Z,98059.41
2022-12-27T07:48:33.239Z,98053.50
2022-12-27T07:51:01.440Z,98052.48
2022-12-27T07:53:30.262Z,98050.52
2022-12-27T07:55:58.115Z,98047.81
2022-12-27T07:58:27.144Z,98041.12
2022-12-27T08:00:55.511Z,98040.36
2022-12-27T08:03:23.801Z,98041.55
2022-12-27T08:05:54.621Z,98043.52
2022-12-27T08:08:25.253Z,98034.33
2022-12-27T08:10:53.507Z,98034.48
2022-12-27T08:13:21.881Z,98035.91
2022-12-27T08:15:52.015Z,98039.30
2022-12-27T08:18:20.393Z,98042.21
2022-12-27T08:20:48.281Z,98043.97
2022-12-27T08:23:17.071Z,98038.29
2022-12-27T08:25:48.747Z,98044.77
2022-12-27T08:28:18.425Z,98050.47
2022-12-27T08:30:48.225Z,98052.90
2022-12-27T08:33:16.401Z,98052.90
2022-12-27T08:35:54.372Z,98060.27
2022-12-27T08:38:22.833Z,98068.80
2022-12-27T08:40:51.016Z,98083.80
2022-12-27T08:43:18.990Z,98108.92
2022-12-27T08:45:47.017Z,98117.66
2022-12-27T08:48:16.884Z,98130.82
2022-12-27T08:50:44.953Z,98140.50
2022-12-27T08:53:13.237Z,98141.16
2022-12-27T08:55:42.094Z,98140.66
2022-12-27T08:58:16.057Z,98131.44
2022-12-27T09:00:44.547Z,98132.05
2022-12-27T09:03:12.772Z,98119.58
2022-12-27T09:05:42.830Z,98117.41
2022-12-27T09:08:11.616Z,98113.81
2022-12-27T09:10:39.675Z,98108.24
2022-12-27T09:13:08.748Z,98101.44
2022-12-27T09:15:37.926Z,98095.96
2022-12-27T09:18:07.002Z,98087.11
2022-12-27T09:20:34.880Z,98087.90
2022-12-27T09:23:02.788Z,98088.88
2022-12-27T09:25:30.848Z,98087.12
2022-12-27T09:27:58.998Z,98077.82
2022-12-27T09:30:28.967Z,98066.77
2022-12-27T09:32:57.777Z,98049.02
2022-12-27T09:35:25.754Z,98039.22
2022-12-27T09:37:54.792Z,98045.54
2022-12-27T09:40:23.087Z,98040.73
2022-12-27T09:43:09.502Z,98034.99
2022-12-27T09:45:45.044Z,98036.89
2022-12-27T09:48:25.051Z,98030.02
2022-12-27T09:50:59.667Z,98032.98
2022-12-27T09:53:40.088Z,98035.33
2022-12-27T09:56:11.757Z,98022.60
2022-12-27T09:58:52.059Z,98015.36
2022-12-27T10:01:36.261Z,98021.69
2022-12-27T10:04:11.806Z,98015.95
2022-12-27T10:06:49.397Z,98029.27
2022-12-27T10:09:33.903Z,98018.42
2022-12-27T10:12:13.608Z,98001.62
2022-12-27T10:14:50.009Z,98014.09
2022-12-27T10:17:37.793Z,98021.41
2022-12-27T10:20:21.725Z,98022.06
2022-12-27T10:22:53.005Z,98030.48
2022-12-27T10:25:23.369Z,98038.36
2022-12-27T10:27:55.762Z,98032.80
2022-12-27T10:30:23.707Z,98035.96
2022-12-27T10:32:53.758Z,98029.45
2022-12-27T10:35:24.672Z,98047.78
2022-12-27T10:37:54.071Z,98033.86
2022-12-27T10:40:34.225Z,98029.94
2022-12-27T10:43:11.854Z,98040.15
2022-12-27T10:45:42.490Z,98048.04
2022-12-27T10:48:20.076Z,98056.44
2022-12-27T10:50:50.853Z,98036.50
2022-12-27T10:53:45.245Z,98018.86
2022-12-27T10:56:17.455Z,98039.18
2022-12-27T10:58:58.751Z,98029.21
2022-12-27T11:01:32.534Z,98024.44
2022-12-27T11:04:14.470Z,98026.28
2022-12-27T11:06:48.945Z,98027.32
2022-12-27T11:09:20.875Z,98018.86
2022-12-27T11:11:48.978Z,98021.79
2022-12-27T11:14:19.206Z,98025.65
2022-12-27T11:16:49.021Z,98042.98
2022-12-27T11:19:25.851Z,98035.35
2022-12-27T11:21:55.745Z,98040.17
2022-12-27T11:24:24.029Z,98022.55
2022-12-27T11:26:55.077Z,98038.33
2022-12-27T11:29:24.101Z,98040.00
2022-12-27T11:31:52.896Z,98025.25
2022-12-27T11:34:27.057Z,98029.30
2022-12-27T11:37:01.902Z,98033.90
2022-12-27T11:39:47.051Z,98028.65
2022-12-27T11:42:32.619Z,98023.32
2022-12-27T11:45:05.152Z,98022.45
2022-12-27T11:47:38.864Z,98031.23
2022-12-27T11:50:19.467Z,98026.60
2022-12-27T11:52:59.890Z,98035.97
2022-12-27T11:55:46.959Z,98036.55
2022-12-27T11:58:20.332Z,98036.33
2022-12-27T12:01:11.829Z,98030.09
2022-12-27T12:03:39.671Z,98033.13
2022-12-27T12:06:20.643Z,98044.88
2022-12-27T12:09:18.741Z,98057.38
2022-12-27T12:12:02.015Z,98072.63
2022-12-27T12:14:36.056Z,98092.41
2022-12-27T12:17:36.098Z,98087.70
2022-12-27T12:20:16.705Z,98083.39
2022-12-27T12:22:56.780Z,98094.94
2022-12-27T12:25:41.915Z,98111.61
2022-12-27T12:28:57.227Z,98106.88
2022-12-27T12:31:23.586Z,98090.48
2022-12-27T12:33:58.697Z,98103.85
2022-12-27T12:36:50.686Z,98104.69
2022-12-27T12:39:20.273Z,98107.91
2022-12-27T12:42:03.618Z,98112.54
2022-12-27T12:44:49.920Z,98105.08
2022-12-27T12:47:52.158Z,98098.99
2022-12-27T12:50:38.740Z,98105.24
2022-12-27T12:53:15.769Z,98106.46
2022-12-27T12:56:02.901Z,98106.79
2022-12-27T12:58:37.275Z,98108.04
2022-12-27T13:01:14.390Z,98107.03
2022-12-27T13:03:53.142Z,98115.80
2022-12-27T13:06:33.217Z,98115.52
2022-12-27T13:09:10.126Z,98115.08
2022-12-27T13:11:48.292Z,98110.66
2022-12-27T13:14:43.485Z,98114.29
2022-12-27T13:17:43.940Z,98122.08
2022-12-27T13:20:34.906Z,98125.90
2022-12-27T13:23:21.570Z,98120.60
2022-12-27T13:25:56.218Z,98124.73
2022-12-27T13:28:43.247Z,98122.39
2022-12-27T13:31:17.198Z,98136.05
2022-12-27T13:33:47.480Z,98131.20
2022-12-27T13:36:21.604Z,98132.83
2022-12-27T13:39:08.032Z,98130.82
2022-12-27T13:41:59.799Z,98130.94
2022-12-27T13:44:47.371Z,98138.80
2022-12-27T13:47:28.365Z,98145.10
2022-12-27T13:50:15.664Z,98147.96
2022-12-27T13:52:59.749Z,98141.98
2022-12-27T13:55:42.642Z,98139.48
2022-12-27T13:58:23.606Z,98138.91
2022-12-27T14:00:53.929Z,98139.58
2022-12-27T14:03:24.901Z,98140.17
2022-12-27T14:05:53.084Z,98133.94
2022-12-27T14:08:27.601Z,98134.79
2022-12-27T14:11:00.920Z,98134.92
2022-12-27T14:13:34.967Z,98142.89
2022-12-27T14:16:12.688Z,98134.86
2022-12-27T14:19:05.675Z,98141.67
2022-12-27T14:21:53.230Z,98149.21
2022-12-27T14:24:45.235Z,98160.40
2022-12-27T14:27:32.365Z,98164.41
2022-12-27T14:30:18.915Z,98178.72
2022-12-27T14:32:47.841Z,98184.98
2022-12-27T14:35:34.715Z,98196.04
2022-12-27T14:38:21.507Z,98193.56
2022-12-27T14:40:49.478Z,98200.31
2022-12-27T14:43:36.289Z,98198.77
2022-12-27T14:46:13.414Z,98201.77
2022-12-27T14:49:00.266Z,98203.56
2022-12-27T14:52:00.016Z,98206.60
2022-12-27T14:54:31.304Z,98223.84
2022-12-27T14:57:12.092Z,98231.40
2022-12-27T14:59:49.028Z,98252.70
2022-12-27T15:02:29.126Z,98275.48
2022-12-27T15:05:15.225Z,98277.17
2022-12-27T15:07:43.169Z,98286.92
2022-12-27T15:10:34.655Z,98293.05
2022-12-27T15:13:11.735Z,98292.16
2022-12-27T15:15:44.959Z,98308.28
2022-12-27T15:18:28.227Z,98313.88
2022-12-27T15:20:57.367Z,98307.65
2022-12-27T15:23:27.969Z,98320.07
2022-12-27T15:26:14.907Z,98322.78
2022-12-27T15:28:58.324Z,98325.80
2022-12-27T15:31:46.654Z,98323.77
2022-12-27T15:34:32.850Z,98321.94
2022-12-27T15:37:01.753Z,98334.91
2022-12-27T15:39:32.472Z,98340.54
2022-12-27T15:42:09.366Z,98356.20
2022-12-27T15:44:57.660Z,98347.52
2022-12-27T15:47:43.214Z,98353.65
2022-12-27T15:50:11.639Z,98361.70
2022-12-27T15:52:39.701Z,98353.76
2022-12-27T15:55:07.535Z,98355.40
2022-12-27T15:57:53.990Z,98373.34
2022-12-27T16:00:33.634Z,98378.94
2022-12-27T16:03:23.532Z,98374.13
2022-12-27T16:05:53.304Z,98386.19
2022-12-27T16:08:44.120Z,98392.70
2022-12-27T16:11:12.717Z,98415.19
2022-12-27T16:13:44.352Z,98422.41
2022-12-27T16:16:33.595Z,98428.02
2022-12-27T16:19:01.525Z,98429.30
2022-12-27T16:21:40.414Z,98433.29
2022-12-27T16:24:17.614Z,98434.52
2022-12-27T16:27:05.793Z,98444.52
2022-12-27T16:29:34.893Z,98444.42
2022-12-27T16:32:24.314Z,98436.65
2022-12-27T16:34:55.581Z,98440.45
2022-12-27T16:37:26.520Z,98437.77
2022-12-27T16:39:54.419Z,98441.39
2022-12-27T16:42:28.156Z,98444.08
2022-12-27T16:45:14.990Z,98460.87
2022-12-27T16:47:42.938Z,98460.09
2022-12-27T16:50:10.828Z,98468.98
2022-12-27T16:52:48.857Z,98471.04
2022-12-27T16:55:30.820Z,98476.70
2022-12-27T16:58:17.436Z,98479.71
2022-12-27T17:00:47.606Z,98484.17
2022-12-27T17:03:21.877Z,98487.39
2022-12-27T17:06:30.209Z,98482.52
2022-12-27T17:08:38.994Z,98490.75
2022-12-27T17:11:42.719Z,98490.58
2022-12-27T17:14:16.757Z,98489.78
2022-12-27T17:16:48.196Z,98482.58
2022-12-27T17:19:19.138Z,98491.22
2022-12-27T17:21:48.209Z,98498.15
2022-12-27T17:24:17.991Z,98499.10
2022-12-27T17:26:45.800Z,98504.20
2022-12-27T17:29:30.481Z,98520.13
2022-12-27T17:32:09.527Z,98534.61
2022-12-27T17:34:43.411Z,98530.56
2022-12-27T17:37:16.979Z,98528.82
2022-12-27T17:39:48.134Z,98530.49
2022-12-27T17:42:37.722Z,98530.09
2022-12-27T17:45:11.501Z,98526.00
2022-12-27T17:47:51.545Z,98535.58
2022-12-27T17:50:25.704Z,98544.60
2022-12-27T17:53:30.721Z,98552.00
2022-12-27T17:56:25.090Z,98556.04
2022-12-27T17:59:01.215Z,98557.11
2022-12-27T18:01:30.428Z,98559.89
2022-12-27T18:03:58.900Z,98559.45
2022-12-27T18:06:26.741Z,98557.47
2022-12-27T18:08:55.775Z,98567.17
2022-12-27T18:11:28.040Z,98566.66
2022-12-27T18:13:59.093Z,98563.82
2022-12-27T18:16:39.181Z,98563.58
2022-12-27T18:19:07.673Z,98573.68
2022-12-27T18:21:35.605Z,98578.26
2022-12-27T18:24:17.698Z,98575.34
2022-12-27T18:26:45.747Z,98575.61
2022-12-27T18:29:13.614Z,98574.27
2022-12-27T18:31:48.138Z,98572.08
2022-12-27T18:34:22.531Z,98575.59
2022-12-27T18:36:52.472Z,98583.27
2022-12-27T18:39:34.969Z,98585.70
2022-12-27T18:42:23.845Z,98588.56
2022-12-27T18:44:55.615Z,98592.73
2022-12-27T18:47:25.298Z,98598.88
2022-12-27T18:49:55.706Z,98597.83
2022-12-27T18:52:26.870Z,98595.94
2022-12-27T18:54:55.323Z,98597.46
2022-12-27T18:57:32.428Z,98592.69
2022-12-27T19:00:02.656Z,98585.20
2022-12-27T19:02:40.031Z,98592.41
2022-12-27T19:05:20.252Z,98592.21
2022-12-27T19:08:00.025Z,98588.41
2022-12-27T19:10:29.024Z,98590.00
2022-12-27T19:12:57.361Z,98592.64
2022-12-27T19:15:30.709Z,98598.45
2022-12-27T19:18:01.084Z,98607.90
2022-12-27T19:20:30.650Z,98615.08
2022-12-27T19:23:00.713Z,98623.20
2022-12-27T19:25:33.612Z,98628.89
2022-12-27T19:28:07.598Z,98626.65
2022-12-27T19:30:35.575Z,98634.34
2022-12-27T19:33:07.773Z,98631.88
2022-12-27T19:35:36.721Z,98635.11
2022-12-27T19:38:05.014Z,98630.63
2022-12-27T19:40:32.884Z,98632.27
2022-12-27T19:43:00.744Z,98636.79
2022-12-27T19:45:30.222Z,98645.07
2022-12-27T19:47:58.303Z,98645.77
2022-12-27T19:50:28.398Z,98640.98
2022-12-27T19:52:56.608Z,98648.45
2022-12-27T19:55:25.893Z,98653.56
2022-12-27T19:57:54.553Z,98649.08
2022-12-27T20:00:24.332Z,98654.14
2022-12-27T20:02:53.085Z,98648.15
2022-12-27T20:06:11.404Z,98647.52
2022-12-27T20:08:24.702Z,98653.65
2022-12-27T20:10:53.640Z,98660.02
2022-12-27T20:13:22.103Z,98664.15
2022-12-27T20:15:50.615Z,98658.41
2022-12-27T20:18:18.821Z,98665.61
2022-12-27T20:20:47.078Z,98669.52
2022-12-27T20:23:15.391Z,98670.76
2022-12-27T20:25:45.221Z,98671.38
2022-12-27T20:28:13.768Z,98676.31
2022-12-27T20:30:42.854Z,98679.16
2022-12-27T20:33:11.495Z,98683.77
2022-12-27T20:35:39.732Z,98685.34
2022-12-27T20:38:09.769Z,98695.19
2022-12-27T20:40:39.011Z,98691.83
2022-12-27T20:43:06.948Z,98696.90
2022-12-27T20:45:35.162Z,98693.81
2022-12-27T20:48:03.985Z,98703.09
2022-12-27T20:50:31.879Z,98704.64
2022-12-27T20:52:59.827Z,98709.52
2022-12-27T20:55:33.293Z,98705.57
2022-12-27T20:58:01.491Z,98710.33
2022-12-27T21:00:29.759Z,98716.86
2022-12-27T21:02:57.874Z,98725.08
2022-12-27T21:05:26.005Z,98717.91
2022-12-27T21:07:53.910Z,98718.55
2022-12-27T21:10:21.992Z,98725.41
2022-12-27T21:12:49.934Z,98736.08
2022-12-27T21:15:17.809Z,98728.98
2022-12-27T21:17:45.733Z,98724.84
2022-12-27T21:20:13.825Z,98728.15
2022-12-27T21:22:42.302Z,98736.15
2022-12-27T21:25:10.418Z,98743.77
2022-12-27T21:27:38.216Z,98745.67
2022-12-27T21:30:07.982Z,98745.23
2022-12-27T21:32:36.862Z,98742.84
2022-12-27T21:35:04.769Z,98739.45
2022-12-27T21:37:32.594Z,98734.63
2022-12-27T21:40:00.418Z,98728.09
2022-12-27T21:42:28.413Z,98730.47
2022-12-27T21:44:56.339Z,98745.05
2022-12-27T21:47:24.319Z,98741.14
2022-12-27T21:49:52.208Z,98746.73
2022-12-27T21:52:20.029Z,98751.19
2022-12-27T21:54:47.904Z,98755.17
2022-12-27T21:57:15.669Z,98762.58
2022-12-27T21:59:43.575Z,98769.60
2022-12-27T22:02:11.647Z,98774.14
2022-12-27T22:04:39.789Z,98770.61
2022-12-27T22:07:07.755Z,98775.50
2022-12-27T22:09:37.013Z,98776.58
2022-12-27T22:12:05.055Z,98776.55
2022-12-27T22:14:36.780Z,98774.96
2022-12-27T22:17:05.054Z,98773.21
2022-12-27T22:19:32.873Z,98767.08
2022-12-27T22:22:00.919Z,98760.48
2022-12-27T22:24:29.568Z,98762.84
2022-12-27T22:26:57.342Z,98759.43
2022-12-27T22:29:26.716Z,98761.29
2022-12-27T22:31:56.214Z,98764.25
2022-12-27T22:34:26.335Z,98766.82
2022-12-27T22:36:54.356Z,98764.43
2022-12-27T22:39:22.134Z,98757.85
2022-12-27T22:41:50.301Z,98759.98
2022-12-27T22:44:18.162Z,98761.64
2022-12-27T22:49:35.030Z,98764.76
2022-12-27T22:52:04.429Z,98772.36
2022-12-27T22:55:04.617Z,98772.80
2022-12-27T22:57:20.223Z,98767.98
2022-12-27T22:59:47.998Z,98765.59
2022-12-27T23:02:15.943Z,98767.76
2022-12-27T23:04:44.503Z,98764.42
2022-12-27T23:07:12.436Z,98762.34
2022-12-27T23:09:43.405Z,98761.80
2022-12-27T23:12:12.237Z,98770.45
2022-12-27T23:14:41.729Z,98777.55
2022-12-27T23:17:09.537Z,98782.35
2022-12-27T23:19:37.433Z,98768.55
2022-12-27T23:22:05.625Z,98770.05
2022-12-27T23:24:33.503Z,98767.34
2022-12-27T23:27:01.603Z,98768.27
2022-12-27T23:29:29.814Z,98761.77
2022-12-27T23:31:57.663Z,98764.45
2022-12-27T23:34:29.345Z,98764.35
2022-12-27T23:36:58.045Z,98764.96
2022-12-27T23:39:25.923Z,98767.61
2022-12-27T23:41:53.794Z,98767.85
2022-12-27T23:44:32.994Z,98769.91
2022-12-27T23:47:05.403Z,98774.91
2022-12-27T23:49:34.170Z,98770.84
2022-12-27T23:52:02.380Z,98763.77
2022-12-27T23:54:30.562Z,98762.81
2022-12-27T23:56:58.573Z,98763.22
2022-12-27T23:59:46.364Z,98758.66
